Time;durP1;ratioP1;P1;durP2;ratioP2;P2;SDS_P1;SDS_P2;PMS_P1;PMS_P2;Temp;Humidity;BMP_temperature;BMP_pressure;BME280_temperature;BME280_humidity;BME280_pressure;Samples;Min_cycle;Max_cycle;Signal;HPM_P1;HPM_P2
2023/04/20 00:09:30;;;;;;;;;;;9.70;38.30;;;;;;8399500;28;20377;-75
2023/04/20 00:13:32;;;;;;;;;;;9.60;38.80;;;;;;8391723;28;19947;-75
2023/04/20 00:17:37;;;;;;;;;;;9.60;38.60;;;;;;8390610;28;19928;-75
2023/04/20 00:21:38;;;;;;;;;;;9.50;39.00;;;;;;8374947;28;19929;-75
2023/04/20 00:25:40;;;;;;;;;;;9.40;38.60;;;;;;8402417;28;19924;-75
2023/04/20 00:29:42;;;;;;;;;;;9.40;38.20;;;;;;8375051;28;19932;-75
2023/04/20 00:33:43;;;;;;;;;;;9.30;38.40;;;;;;8393335;28;19931;-75
2023/04/20 00:37:45;;;;;;;;;;;9.30;38.60;;;;;;8390529;28;19925;-75
2023/04/20 00:41:47;;;;;;;;;;;9.20;39.10;;;;;;8392900;28;20284;-75
2023/04/20 00:45:50;;;;;;;;;;;9.10;38.90;;;;;;8422324;28;19924;-75
2023/04/20 00:49:53;;;;;;;;;;;9.00;39.10;;;;;;8391410;28;19976;-75
2023/04/20 00:53:55;;;;;;;;;;;8.90;39.40;;;;;;8402314;28;19924;-75
2023/04/20 00:57:57;;;;;;;;;;;8.90;40.20;;;;;;8383137;28;19956;-75
2023/04/20 01:01:59;;;;;;;;;;;8.90;39.40;;;;;;8379812;28;19974;-75
2023/04/20 01:06:01;;;;;;;;;;;8.90;39.80;;;;;;8422196;28;19971;-75
2023/04/20 01:10:03;;;;;;;;;;;8.90;39.60;;;;;;8389011;28;20027;-75
2023/04/20 01:29:17;;;;;;;;;;;8.80;39.80;;;;;;8382102;28;20049;-75
2023/04/20 01:33:19;;;;;;;;;;;8.80;42.40;;;;;;8383392;28;20364;-75
2023/04/20 01:37:20;;;;;;;;;;;8.80;42.50;;;;;;8386808;28;20022;-75
2023/04/20 01:41:22;;;;;;;;;;;8.70;42.20;;;;;;8384448;28;19972;-75
2023/04/20 01:45:24;;;;;;;;;;;8.70;43.70;;;;;;8412401;28;19945;-75
2023/04/20 01:49:25;;;;;;;;;;;8.70;44.20;;;;;;8411395;28;19930;-75
2023/04/20 01:53:27;;;;;;;;;;;8.60;42.90;;;;;;8384860;28;19924;-75
2023/04/20 01:57:29;;;;;;;;;;;8.60;43.60;;;;;;8399517;28;20344;-75
2023/04/20 02:01:30;;;;;;;;;;;8.50;42.70;;;;;;8388340;28;20229;-76
2023/04/20 02:05:32;;;;;;;;;;;8.40;42.60;;;;;;8379978;28;20392;-76
2023/04/20 02:09:34;;;;;;;;;;;8.40;45.80;;;;;;8391346;28;19932;-75
2023/04/20 02:13:36;;;;;;;;;;;8.40;47.20;;;;;;8398521;28;20361;-75
2023/04/20 02:17:37;;;;;;;;;;;8.30;52.40;;;;;;8389157;28;19924;-76
2023/04/20 02:21:39;;;;;;;;;;;8.30;47.40;;;;;;8395294;28;20351;-76
2023/04/20 02:25:41;;;;;;;;;;;8.30;52.30;;;;;;8387759;28;19971;-76
2023/04/20 02:29:42;;;;;;;;;;;8.30;50.80;;;;;;8380872;28;19932;-75
2023/04/20 02:33:46;;;;;;;;;;;8.40;47.90;;;;;;8390504;28;19968;-75
2023/04/20 02:37:48;;;;;;;;;;;8.50;49.20;;;;;;8420600;27;19931;-75
2023/04/20 02:41:49;;;;;;;;;;;8.60;49.40;;;;;;8390414;28;20368;-75
2023/04/20 02:46:09;;;;;;;;;;;8.60;51.60;;;;;;8384219;28;20420;-75
2023/04/20 02:50:11;;;;;;;;;;;8.50;48.90;;;;;;8381007;28;19925;-75
2023/04/20 02:54:13;;;;;;;;;;;8.50;48.00;;;;;;8389122;28;20028;-75
2023/04/20 02:58:16;;;;;;;;;;;8.50;52.20;;;;;;8372354;28;20031;-75
2023/04/20 03:02:18;;;;;;;;;;;8.50;48.70;;;;;;8376390;28;20372;-75
2023/04/20 03:06:20;;;;;;;;;;;8.60;53.00;;;;;;8386957;28;19967;-75
2023/04/20 03:10:21;;;;;;;;;;;8.70;53.10;;;;;;8390783;28;19940;-75
2023/04/20 03:14:23;;;;;;;;;;;8.80;51.90;;;;;;8402091;28;19935;-75
2023/04/20 03:18:24;;;;;;;;;;;8.90;52.70;;;;;;8380176;28;20320;-75
2023/04/20 03:22:26;;;;;;;;;;;8.90;52.00;;;;;;8384721;28;19931;-75
2023/04/20 03:26:28;;;;;;;;;;;9.00;53.00;;;;;;8392936;28;19929;-75
2023/04/20 03:30:29;;;;;;;;;;;9.00;53.10;;;;;;8394917;28;19978;-75
2023/04/20 03:34:31;;;;;;;;;;;9.10;52.50;;;;;;8388010;28;19963;-75
2023/04/20 03:38:33;;;;;;;;;;;9.10;56.10;;;;;;8425130;28;19931;-75
2023/04/20 03:42:36;;;;;;;;;;;9.10;53.80;;;;;;8388359;28;19924;-75
2023/04/20 03:46:37;;;;;;;;;;;9.10;55.70;;;;;;8387574;28;19975;-75
2023/04/20 03:50:39;;;;;;;;;;;9.20;55.30;;;;;;8392419;28;20369;-75
2023/04/20 03:54:41;;;;;;;;;;;9.20;54.90;;;;;;8398142;28;19932;-75
2023/04/20 03:58:42;;;;;;;;;;;9.20;55.20;;;;;;8385303;28;20299;-75
2023/04/20 04:02:44;;;;;;;;;;;9.30;54.80;;;;;;8386818;28;19932;-75
2023/04/20 04:06:46;;;;;;;;;;;9.20;57.00;;;;;;8392564;28;19924;-75
2023/04/20 04:10:47;;;;;;;;;;;9.30;52.80;;;;;;8389478;28;19924;-75
2023/04/20 04:14:49;;;;;;;;;;;9.30;58.70;;;;;;8396524;28;20419;-75
2023/04/20 04:18:51;;;;;;;;;;;9.30;55.60;;;;;;8380895;28;20261;-75
2023/04/20 04:22:52;;;;;;;;;;;9.30;58.10;;;;;;8381756;28;20273;-75
2023/04/20 04:26:57;;;;;;;;;;;9.30;55.70;;;;;;8379449;28;20038;-75
2023/04/20 04:31:05;;;;;;;;;;;9.30;57.20;;;;;;8380658;28;20344;-75
2023/04/20 04:35:07;;;;;;;;;;;9.30;53.70;;;;;;8385804;28;19925;-74
2023/04/20 04:39:08;;;;;;;;;;;9.30;55.20;;;;;;8392701;28;20366;-75
2023/04/20 04:43:10;;;;;;;;;;;9.30;54.60;;;;;;8398661;28;20372;-74
2023/04/20 04:47:13;;;;;;;;;;;9.30;57.60;;;;;;8403826;28;19964;-75
2023/04/20 04:51:15;;;;;;;;;;;9.30;60.80;;;;;;8387381;28;19929;-75
2023/04/20 04:55:16;;;;;;;;;;;9.30;58.20;;;;;;8403410;28;19925;-75
2023/04/20 04:59:18;;;;;;;;;;;9.30;60.90;;;;;;8387325;28;19924;-75
2023/04/20 05:03:20;;;;;;;;;;;9.30;62.00;;;;;;8390277;28;20295;-75
2023/04/20 05:07:23;;;;;;;;;;;9.30;55.80;;;;;;8408284;28;20000;-75
2023/04/20 05:11:25;;;;;;;;;;;9.30;57.00;;;;;;8373446;28;20399;-76
2023/04/20 05:15:26;;;;;;;;;;;9.30;61.70;;;;;;8405506;28;19927;-75
2023/04/20 05:19:28;;;;;;;;;;;9.30;57.50;;;;;;8397658;28;19924;-75
2023/04/20 05:23:30;;;;;;;;;;;9.30;61.60;;;;;;8402131;28;20267;-75
2023/04/20 05:27:32;;;;;;;;;;;9.20;64.40;;;;;;8391635;28;20379;-75
2023/04/20 05:31:33;;;;;;;;;;;9.30;58.90;;;;;;8392512;28;19928;-75
2023/04/20 05:35:35;;;;;;;;;;;9.30;60.00;;;;;;8388028;28;19924;-75
2023/04/20 05:39:37;;;;;;;;;;;9.30;59.70;;;;;;8415937;28;20010;-75
2023/04/20 05:43:38;;;;;;;;;;;9.30;61.30;;;;;;8387137;28;19932;-75
2023/04/20 05:47:40;;;;;;;;;;;9.30;64.00;;;;;;8387396;28;19933;-75
2023/04/20 05:51:42;;;;;;;;;;;9.30;59.10;;;;;;8394425;28;19925;-75
2023/04/20 05:55:43;;;;;;;;;;;9.30;63.90;;;;;;8389859;28;19924;-75
2023/04/20 05:59:45;;;;;;;;;;;9.30;66.60;;;;;;8394401;28;19947;-75
2023/04/20 06:03:48;;;;;;;;;;;9.40;60.90;;;;;;8396957;28;19931;-75
2023/04/20 06:07:49;;;;;;;;;;;9.40;59.20;;;;;;8393475;28;19929;-75
2023/04/20 06:11:51;;;;;;;;;;;9.50;64.60;;;;;;8398529;28;19929;-75
2023/04/20 06:15:53;;;;;;;;;;;9.50;65.10;;;;;;8391618;28;19928;-75
2023/04/20 06:19:55;;;;;;;;;;;9.60;61.80;;;;;;8390838;28;19931;-75
2023/04/20 06:23:56;;;;;;;;;;;9.70;68.40;;;;;;8378275;28;19924;-75
2023/04/20 06:27:58;;;;;;;;;;;9.70;65.30;;;;;;8388141;28;19925;-75
2023/04/20 06:32:00;;;;;;;;;;;9.80;62.60;;;;;;8380879;28;20481;-75
2023/04/20 06:36:05;;;;;;;;;;;9.90;59.40;;;;;;8378346;28;19929;-75
2023/04/20 06:40:06;;;;;;;;;;;9.90;59.70;;;;;;8378049;28;20016;-75
2023/04/20 06:44:08;;;;;;;;;;;10.00;61.30;;;;;;8375470;28;19967;-76
2023/04/20 06:48:10;;;;;;;;;;;10.00;60.20;;;;;;8363655;28;19928;-75
2023/04/20 06:52:29;;;;;;;;;;;10.00;61.00;;;;;;8372610;28;20410;-75
2023/04/20 06:56:31;;;;;;;;;;;10.10;60.40;;;;;;8365322;28;19936;-75
2023/04/20 07:00:35;;;;;;;;;;;10.20;63.00;;;;;;8363589;28;20353;-75
2023/04/20 07:04:37;;;;;;;;;;;10.40;64.80;;;;;;8394125;28;19931;-75
2023/04/20 07:08:39;;;;;;;;;;;10.60;65.50;;;;;;8376207;28;19931;-75
2023/04/20 07:12:41;;;;;;;;;;;10.60;61.50;;;;;;8391999;28;19997;-75
2023/04/20 07:16:43;;;;;;;;;;;10.70;60.00;;;;;;8383412;28;19928;-75
2023/04/20 07:20:45;;;;;;;;;;;10.70;59.90;;;;;;8383486;28;19929;-75
2023/04/20 07:24:47;;;;;;;;;;;10.60;62.60;;;;;;8394584;28;19933;-75
2023/04/20 07:28:50;;;;;;;;;;;10.60;67.70;;;;;;8383954;28;19960;-75
2023/04/20 07:32:51;;;;;;;;;;;10.50;69.40;;;;;;8408201;28;19924;-75
2023/04/20 07:36:53;;;;;;;;;;;10.40;65.90;;;;;;8382623;28;19924;-75
2023/04/20 07:40:55;;;;;;;;;;;10.40;60.90;;;;;;8399988;28;19924;-76
2023/04/20 07:44:56;;;;;;;;;;;10.30;68.40;;;;;;8377262;28;19924;-75
2023/04/20 07:48:58;;;;;;;;;;;10.20;68.50;;;;;;8382255;28;19972;-75
2023/04/20 07:53:00;;;;;;;;;;;10.20;71.00;;;;;;8373119;28;20285;-75
2023/04/20 07:57:02;;;;;;;;;;;10.10;64.20;;;;;;8377478;28;19936;-76
2023/04/20 08:01:04;;;;;;;;;;;9.90;64.90;;;;;;8372251;28;20372;-75
2023/04/20 08:05:06;;;;;;;;;;;9.90;70.60;;;;;;8393077;28;19928;-76
2023/04/20 08:09:08;;;;;;;;;;;9.90;76.60;;;;;;8388089;28;19958;-76
2023/04/20 08:13:13;;;;;;;;;;;9.80;71.60;;;;;;8377197;28;19978;-75
2023/04/20 08:17:14;;;;;;;;;;;9.80;77.70;;;;;;8394306;28;19978;-76
2023/04/20 08:21:17;;;;;;;;;;;9.90;74.00;;;;;;8402399;28;19932;-75
2023/04/20 08:25:19;;;;;;;;;;;10.00;73.30;;;;;;8400519;28;19925;-75
2023/04/20 08:29:20;;;;;;;;;;;10.60;70.30;;;;;;8407644;28;20298;-75
2023/04/20 08:33:22;;;;;;;;;;;11.20;75.10;;;;;;8386960;28;19931;-76
2023/04/20 08:37:24;;;;;;;;;;;11.60;71.20;;;;;;8407199;28;19924;-75
2023/04/20 08:41:26;;;;;;;;;;;11.90;70.30;;;;;;8416641;28;19936;-75
2023/04/20 08:45:30;;;;;;;;;;;12.20;69.10;;;;;;8396096;28;20300;-76
2023/04/20 08:49:31;;;;;;;;;;;12.20;69.30;;;;;;8399450;28;20343;-75
2023/04/20 08:53:33;;;;;;;;;;;12.10;74.10;;;;;;8391585;28;19936;-75
2023/04/20 08:57:35;;;;;;;;;;;11.90;68.70;;;;;;8386152;28;19932;-75
2023/04/20 09:01:38;;;;;;;;;;;11.70;70.20;;;;;;8385623;28;20379;-76
2023/04/20 09:05:40;;;;;;;;;;;11.80;71.50;;;;;;8401456;28;19924;-75
2023/04/20 09:09:51;;;;;;;;;;;11.70;73.30;;;;;;8389423;28;20295;-75
2023/04/20 09:14:00;;;;;;;;;;;11.50;75.70;;;;;;8394705;28;19924;-75
2023/04/20 09:18:16;;;;;;;;;;;11.50;70.20;;;;;;8415910;28;19929;-75
2023/04/20 09:22:28;;;;;;;;;;;11.80;70.60;;;;;;8399559;28;20295;-75
2023/04/20 09:26:33;;;;;;;;;;;11.90;75.40;;;;;;8369759;28;20345;-76
2023/04/20 09:30:37;;;;;;;;;;;12.00;71.90;;;;;;8383197;28;19938;-76
2023/04/20 09:34:43;;;;;;;;;;;11.90;71.90;;;;;;8393096;28;19924;-75
2023/04/20 09:38:45;;;;;;;;;;;11.80;69.80;;;;;;8382617;28;20226;-75
2023/04/20 09:42:47;;;;;;;;;;;11.70;70.00;;;;;;8372655;28;20007;-76
2023/04/20 09:51:53;;;;;;;;;;;12.00;73.50;;;;;;8403434;28;20307;-76
2023/04/20 09:55:55;;;;;;;;;;;12.30;73.60;;;;;;8401371;28;19925;-76
2023/04/20 09:59:58;;;;;;;;;;;12.60;81.10;;;;;;8389562;28;20043;-75
2023/04/20 10:04:02;;;;;;;;;;;12.90;75.10;;;;;;8394137;28;19955;-76
2023/04/20 10:08:04;;;;;;;;;;;13.10;78.00;;;;;;8395909;28;19925;-76
2023/04/20 10:12:06;;;;;;;;;;;13.20;75.90;;;;;;8382366;28;19935;-76
2023/04/20 10:16:16;;;;;;;;;;;13.20;73.50;;;;;;8395617;28;19931;-75
2023/04/20 10:20:22;;;;;;;;;;;13.10;78.30;;;;;;8391035;28;19986;-76
2023/04/20 10:24:28;;;;;;;;;;;13.10;77.70;;;;;;8371410;28;19991;-76
2023/04/20 10:28:38;;;;;;;;;;;12.90;73.70;;;;;;8414102;27;19925;-76
2023/04/20 10:32:40;;;;;;;;;;;12.80;77.30;;;;;;8410397;28;19925;-76
2023/04/20 10:36:41;;;;;;;;;;;12.70;74.40;;;;;;8388021;28;19925;-75
2023/04/20 10:40:43;;;;;;;;;;;12.70;73.50;;;;;;8410710;28;20362;-76
2023/04/20 10:44:52;;;;;;;;;;;12.60;74.10;;;;;;8391268;28;19924;-76
2023/04/20 10:59:07;;;;;;;;;;;12.70;73.00;;;;;;8381385;28;19930;-76
2023/04/20 11:03:10;;;;;;;;;;;13.00;72.60;;;;;;8382127;28;19924;-75
2023/04/20 11:07:15;;;;;;;;;;;13.00;73.00;;;;;;8379159;28;19978;-76
2023/04/20 11:11:18;;;;;;;;;;;13.00;72.40;;;;;;8390167;28;20027;-76
2023/04/20 11:30:37;;;;;;;;;;;14.80;78.10;;;;;;8382808;28;19955;-76
2023/04/20 11:34:41;;;;;;;;;;;14.90;75.40;;;;;;8376727;28;19935;-76
2023/04/20 11:38:44;;;;;;;;;;;14.70;74.40;;;;;;8410295;27;20399;-76
2023/04/20 11:42:46;;;;;;;;;;;14.40;73.00;;;;;;8372096;28;20360;-76
2023/04/20 11:46:49;;;;;;;;;;;13.90;72.40;;;;;;8365736;28;19939;-76
2023/04/20 11:50:50;;;;;;;;;;;13.50;70.90;;;;;;8362153;28;20014;-76
2023/04/20 11:54:52;;;;;;;;;;;13.40;70.60;;;;;;8368954;28;19964;-76
2023/04/20 12:09:02;;;;;;;;;;;14.50;73.90;;;;;;8363917;28;19935;-76
2023/04/20 12:13:03;;;;;;;;;;;14.10;72.50;;;;;;8372582;28;19939;-76
2023/04/20 12:17:05;;;;;;;;;;;13.60;70.70;;;;;;8393482;28;19960;-76
2023/04/20 12:21:07;;;;;;;;;;;13.20;70.50;;;;;;8362631;28;19931;-76
2023/04/20 12:25:08;;;;;;;;;;;13.00;71.10;;;;;;8369478;28;19928;-76
2023/04/20 12:34:20;;;;;;;;;;;13.00;72.10;;;;;;8305514;28;19937;-76
2023/04/20 12:38:21;;;;;;;;;;;12.80;72.70;;;;;;8307244;28;19930;-76
2023/04/20 12:42:23;;;;;;;;;;;12.70;68.80;;;;;;8298038;28;19925;-76
2023/04/20 12:46:25;;;;;;;;;;;12.50;72.30;;;;;;8310122;28;19939;-76
2023/04/20 12:50:26;;;;;;;;;;;12.40;71.40;;;;;;8314077;28;20029;-76
2023/04/20 12:54:28;;;;;;;;;;;12.60;69.40;;;;;;8299443;28;19963;-76
2023/04/20 12:58:30;;;;;;;;;;;12.80;70.90;;;;;;8314741;28;20011;-76
2023/04/20 13:02:32;;;;;;;;;;;12.80;73.00;;;;;;8307977;28;19981;-76
2023/04/20 13:06:33;;;;;;;;;;;12.80;72.90;;;;;;8307943;28;19926;-76
2023/04/20 13:10:37;;;;;;;;;;;13.10;73.80;;;;;;8303619;28;19968;-76
2023/04/20 13:14:39;;;;;;;;;;;13.40;74.20;;;;;;8306387;28;19925;-76
2023/04/20 13:18:41;;;;;;;;;;;13.40;74.00;;;;;;8305079;28;20299;-76
2023/04/20 13:22:42;;;;;;;;;;;13.30;71.80;;;;;;8303836;28;20380;-76
2023/04/20 13:26:57;;;;;;;;;;;13.20;74.00;;;;;;8313493;28;19964;-76
2023/04/20 13:30:59;;;;;;;;;;;13.10;73.80;;;;;;8312073;28;19967;-76
2023/04/20 13:35:01;;;;;;;;;;;13.10;74.00;;;;;;8374012;28;20320;-76
2023/04/20 13:39:03;;;;;;;;;;;13.00;72.70;;;;;;8369273;28;20284;-76
2023/04/20 13:43:04;;;;;;;;;;;13.00;72.50;;;;;;8384629;28;19925;-76
2023/04/20 13:47:06;;;;;;;;;;;13.10;72.00;;;;;;8368526;28;19932;-76
2023/04/20 13:51:08;;;;;;;;;;;13.10;74.00;;;;;;8369327;28;19936;-76
2023/04/20 13:55:09;;;;;;;;;;;13.20;73.80;;;;;;8369975;28;20368;-76
2023/04/20 13:59:11;;;;;;;;;;;13.20;72.10;;;;;;8368985;28;20327;-77
2023/04/20 14:03:14;;;;;;;;;;;13.10;72.50;;;;;;8366680;28;20500;-76
2023/04/20 14:07:16;;;;;;;;;;;13.20;71.80;;;;;;8366719;28;19954;-76
2023/04/20 14:11:17;;;;;;;;;;;13.30;71.10;;;;;;8373283;28;19948;-76
2023/04/20 14:15:21;;;;;;;;;;;13.70;74.50;;;;;;8372440;28;20204;-76
2023/04/20 14:19:22;;;;;;;;;;;14.20;75.50;;;;;;8373542;28;19928;-76
2023/04/20 14:23:24;;;;;;;;;;;14.50;75.90;;;;;;8363842;28;20376;-76
2023/04/20 14:27:25;;;;;;;;;;;14.50;75.60;;;;;;8372086;28;24183;-76
2023/04/20 14:31:27;;;;;;;;;;;14.20;74.00;;;;;;8369037;28;20162;-76
2023/04/20 14:35:29;;;;;;;;;;;14.00;73.00;;;;;;8370134;28;20360;-76
2023/04/20 14:39:31;;;;;;;;;;;13.80;74.10;;;;;;8366909;28;19936;-76
2023/04/20 14:43:34;;;;;;;;;;;13.70;74.50;;;;;;8367350;28;19936;-76
2023/04/20 14:47:35;;;;;;;;;;;13.80;74.70;;;;;;8366894;28;20280;-76
2023/04/20 14:51:37;;;;;;;;;;;14.00;74.50;;;;;;8382483;28;20420;-76
2023/04/20 14:55:39;;;;;;;;;;;14.30;76.80;;;;;;8365408;28;19931;-76
2023/04/20 14:59:41;;;;;;;;;;;15.20;77.50;;;;;;8365508;28;19929;-76
2023/04/20 15:03:43;;;;;;;;;;;16.40;75.90;;;;;;8366935;28;20330;-76
2023/04/20 15:07:45;;;;;;;;;;;16.80;72.20;;;;;;8363543;28;19931;-77
2023/04/20 15:11:46;;;;;;;;;;;16.30;73.30;;;;;;8362023;28;19990;-76
2023/04/20 15:15:48;;;;;;;;;;;15.60;73.40;;;;;;8380297;28;19944;-76
2023/04/20 15:19:51;;;;;;;;;;;15.10;72.80;;;;;;8361313;28;19928;-76
2023/04/20 15:23:53;;;;;;;;;;;15.70;77.70;;;;;;8368073;28;19940;-76
2023/04/20 15:27:55;;;;;;;;;;;17.10;78.40;;;;;;8361783;28;20269;-76
2023/04/20 15:31:56;;;;;;;;;;;17.80;78.40;;;;;;8360427;28;20022;-76
2023/04/20 15:35:58;;;;;;;;;;;17.40;74.40;;;;;;8365791;28;19978;-76
2023/04/20 15:40:00;;;;;;;;;;;16.60;74.60;;;;;;8362877;28;20460;-77
2023/04/20 15:44:01;;;;;;;;;;;15.90;72.00;;;;;;8366741;28;19935;-76
2023/04/20 15:48:03;;;;;;;;;;;15.30;70.90;;;;;;8380668;28;20030;-76
2023/04/20 15:52:06;;;;;;;;;;;15.80;72.50;;;;;;8371392;28;19971;-76
2023/04/20 15:56:08;;;;;;;;;;;17.10;77.40;;;;;;8371707;28;19933;-76
2023/04/20 16:00:10;;;;;;;;;;;18.60;84.10;;;;;;8381115;28;19977;-76
2023/04/20 16:04:12;;;;;;;;;;;19.70;82.20;;;;;;8362953;28;20347;-77
2023/04/20 16:08:17;;;;;;;;;;;20.10;77.30;;;;;;8363634;28;19928;-76
2023/04/20 16:12:19;;;;;;;;;;;19.70;70.20;;;;;;8367077;28;19925;-77
2023/04/20 16:16:20;;;;;;;;;;;18.50;70.00;;;;;;8366910;28;20023;-76
2023/04/20 16:20:22;;;;;;;;;;;17.40;69.60;;;;;;8363595;28;20380;-76
2023/04/20 16:24:24;;;;;;;;;;;16.50;70.20;;;;;;8366764;28;20377;-76
2023/04/20 16:28:26;;;;;;;;;;;16.40;72.50;;;;;;8367670;28;19924;-76
2023/04/20 16:32:27;;;;;;;;;;;17.40;75.30;;;;;;8377509;28;19940;-76
2023/04/20 16:36:29;;;;;;;;;;;18.60;75.40;;;;;;8384481;28;19933;-77
2023/04/20 16:40:31;;;;;;;;;;;19.50;72.90;;;;;;8369449;28;20376;-76
2023/04/20 16:44:32;;;;;;;;;;;20.10;75.50;;;;;;8372942;28;19935;-77
2023/04/20 16:48:34;;;;;;;;;;;19.60;70.70;;;;;;8370903;28;19928;-76
2023/04/20 16:52:36;;;;;;;;;;;18.20;65.10;;;;;;8373536;28;19968;-76
2023/04/20 16:56:37;;;;;;;;;;;17.20;66.70;;;;;;8386544;28;19975;-76
2023/04/20 17:00:39;;;;;;;;;;;16.50;68.20;;;;;;8381017;28;19924;-76
2023/04/20 17:04:41;;;;;;;;;;;16.50;69.60;;;;;;8374951;28;20026;-76
2023/04/20 17:08:42;;;;;;;;;;;16.90;70.70;;;;;;8375525;28;19959;-76
2023/04/20 17:12:44;;;;;;;;;;;16.70;67.30;;;;;;8388227;28;19940;-76
2023/04/20 17:16:46;;;;;;;;;;;16.80;68.70;;;;;;8371666;28;19970;-76
2023/04/20 17:20:48;;;;;;;;;;;17.30;66.80;;;;;;8370977;28;19993;-76
2023/04/20 17:24:50;;;;;;;;;;;17.10;65.50;;;;;;8369285;28;19933;-76
2023/04/20 17:28:52;;;;;;;;;;;16.50;65.10;;;;;;8373096;28;19928;-76
2023/04/20 17:32:56;;;;;;;;;;;15.90;64.20;;;;;;8366879;28;20347;-76
2023/04/20 17:36:57;;;;;;;;;;;15.40;64.60;;;;;;8367758;28;19929;-76
2023/04/20 17:40:59;;;;;;;;;;;15.00;65.00;;;;;;8368960;28;19931;-76
2023/04/20 17:45:00;;;;;;;;;;;15.10;65.80;;;;;;8377596;28;20012;-76
2023/04/20 17:49:02;;;;;;;;;;;15.70;67.40;;;;;;8368083;28;20393;-76
2023/04/20 17:53:28;;;;;;;;;;;16.30;66.90;;;;;;8369334;28;19932;-76
2023/04/20 17:57:30;;;;;;;;;;;16.60;65.90;;;;;;8381033;28;20288;-76
2023/04/20 18:06:15;;;;;;;;;;;16.50;65.40;;;;;;8372295;28;19925;-76
2023/04/20 18:10:17;;;;;;;;;;;16.00;64.60;;;;;;8368161;28;19935;-76
2023/04/20 18:14:19;;;;;;;;;;;15.70;63.40;;;;;;8367886;28;20376;-76
2023/04/20 18:28:35;;;;;;;;;;;14.40;63.80;;;;;;8368533;28;19953;-76
2023/04/20 18:32:37;;;;;;;;;;;14.20;63.10;;;;;;8379070;28;20027;-76
2023/04/20 18:36:39;;;;;;;;;;;14.00;64.70;;;;;;8390462;28;19972;-75
2023/04/20 18:40:41;;;;;;;;;;;13.90;63.00;;;;;;8374712;28;19936;-76
2023/04/20 18:44:42;;;;;;;;;;;13.80;63.10;;;;;;8373395;28;19959;-76
2023/04/20 18:48:44;;;;;;;;;;;13.60;62.20;;;;;;8369951;28;20331;-76
2023/04/20 18:52:46;;;;;;;;;;;13.50;61.10;;;;;;8370135;28;19978;-76
2023/04/20 18:56:49;;;;;;;;;;;13.40;61.10;;;;;;8366042;28;20007;-75
2023/04/20 19:00:50;;;;;;;;;;;13.20;61.40;;;;;;8381855;28;19956;-76
2023/04/20 19:09:56;;;;;;;;;;;13.10;60.10;;;;;;8365017;28;20011;-76
2023/04/20 19:13:58;;;;;;;;;;;12.90;60.90;;;;;;8363314;28;19931;-75
2023/04/20 19:17:59;;;;;;;;;;;12.80;60.70;;;;;;8363761;28;19929;-75
2023/04/20 19:22:02;;;;;;;;;;;12.70;59.10;;;;;;8369218;28;20373;-76
2023/04/20 19:26:04;;;;;;;;;;;12.70;62.80;;;;;;8397366;28;19924;-76
2023/04/20 19:30:06;;;;;;;;;;;12.60;62.00;;;;;;8365290;28;20291;-76
2023/04/20 19:34:07;;;;;;;;;;;12.60;64.00;;;;;;8369809;28;20349;-77
2023/04/20 19:38:09;;;;;;;;;;;12.60;65.80;;;;;;8364046;28;19931;-76
2023/04/20 19:42:11;;;;;;;;;;;12.50;65.30;;;;;;8378604;28;19990;-76
2023/04/20 19:46:13;;;;;;;;;;;12.40;64.20;;;;;;8366372;28;20686;-76
2023/04/20 19:50:15;;;;;;;;;;;12.40;66.30;;;;;;8367381;28;19932;-76
2023/04/20 19:54:17;;;;;;;;;;;12.30;67.50;;;;;;8364639;28;19931;-76
2023/04/20 19:58:19;;;;;;;;;;;12.20;69.30;;;;;;8366346;28;20380;-76
2023/04/20 20:02:20;;;;;;;;;;;12.10;71.20;;;;;;8371957;28;19931;-76
2023/04/20 20:06:22;;;;;;;;;;;12.10;70.90;;;;;;8362245;28;20026;-77
2023/04/20 20:10:24;;;;;;;;;;;12.10;72.10;;;;;;8374396;28;19932;-76
2023/04/20 20:14:25;;;;;;;;;;;12.10;70.70;;;;;;8370116;28;19933;-75
2023/04/20 20:18:27;;;;;;;;;;;12.00;71.40;;;;;;8364105;28;20008;-76
2023/04/20 20:22:29;;;;;;;;;;;12.00;72.50;;;;;;8373392;28;19925;-76
2023/04/20 20:26:31;;;;;;;;;;;12.00;70.30;;;;;;8381761;28;19925;-76
2023/04/20 20:36:16;;;;;;;;;;;11.80;75.20;;;;;;8325601;28;19927;-76
2023/04/20 20:40:18;;;;;;;;;;;11.70;72.20;;;;;;8379269;28;20384;-76
2023/04/20 20:44:19;;;;;;;;;;;11.60;74.60;;;;;;8377558;28;19928;-77
2023/04/20 21:03:32;;;;;;;;;;;11.40;73.60;;;;;;8383105;28;19964;-76
2023/04/20 21:07:34;;;;;;;;;;;11.30;73.70;;;;;;8384120;28;19924;-76
2023/04/20 21:11:35;;;;;;;;;;;11.30;73.10;;;;;;8375909;28;19928;-76
2023/04/20 21:15:37;;;;;;;;;;;11.30;71.80;;;;;;8383174;28;20008;-76
2023/04/20 21:19:39;;;;;;;;;;;11.20;71.90;;;;;;8389593;28;19924;-75
2023/04/20 21:23:41;;;;;;;;;;;11.20;73.90;;;;;;8397409;28;19925;-75
2023/04/20 21:27:42;;;;;;;;;;;11.20;69.20;;;;;;8388806;28;20359;-75
2023/04/20 21:31:44;;;;;;;;;;;11.20;71.20;;;;;;8390061;28;19934;-76
2023/04/20 21:35:45;;;;;;;;;;;11.20;68.10;;;;;;8410881;28;19928;-76
2023/04/20 21:39:48;;;;;;;;;;;11.20;73.10;;;;;;8396722;28;20363;-76
2023/04/20 21:43:50;;;;;;;;;;;11.20;70.60;;;;;;8394359;28;19947;-76
2023/04/20 21:47:54;;;;;;;;;;;11.10;69.40;;;;;;8395839;28;19936;-76
2023/04/20 21:51:55;;;;;;;;;;;11.10;73.70;;;;;;8370502;28;19933;-76
2023/04/20 21:55:57;;;;;;;;;;;11.10;76.10;;;;;;8390469;28;19924;-76
2023/04/20 21:59:59;;;;;;;;;;;11.00;73.30;;;;;;8363511;28;20062;-76
2023/04/20 22:04:00;;;;;;;;;;;11.00;71.80;;;;;;8388094;28;19960;-76
2023/04/20 22:08:02;;;;;;;;;;;11.00;75.50;;;;;;8386501;28;19925;-76
2023/04/20 22:12:04;;;;;;;;;;;11.00;70.90;;;;;;8389649;28;20382;-76
2023/04/20 22:16:06;;;;;;;;;;;10.90;71.80;;;;;;8394106;28;20457;-75
2023/04/20 22:20:08;;;;;;;;;;;10.90;76.50;;;;;;8391080;28;19994;-76
2023/04/20 22:29:14;;;;;;;;;;;10.80;75.20;;;;;;8382729;28;20305;-75
2023/04/20 22:33:16;;;;;;;;;;;10.70;81.30;;;;;;8379316;28;20042;-75
2023/04/20 22:47:37;;;;;;;;;;;10.60;79.30;;;;;;8393419;28;19958;-75
2023/04/20 22:51:39;;;;;;;;;;;10.60;81.40;;;;;;8378995;28;19924;-75
2023/04/20 22:55:41;;;;;;;;;;;10.50;78.00;;;;;;8402238;28;19931;-75
2023/04/20 22:59:42;;;;;;;;;;;10.50;78.70;;;;;;8394324;28;19935;-75
2023/04/20 23:03:44;;;;;;;;;;;10.50;79.30;;;;;;8390047;28;20338;-75
2023/04/20 23:07:46;;;;;;;;;;;10.50;76.90;;;;;;8378401;28;19974;-75
2023/04/20 23:11:48;;;;;;;;;;;10.50;78.30;;;;;;8404367;28;20006;-75
2023/04/20 23:25:56;;;;;;;;;;;10.40;74.90;;;;;;8381732;28;19969;-75
2023/04/20 23:29:58;;;;;;;;;;;10.40;76.90;;;;;;8394018;28;20328;-75
2023/04/20 23:33:59;;;;;;;;;;;10.30;74.70;;;;;;8386760;28;19931;-75
2023/04/20 23:38:02;;;;;;;;;;;10.30;77.50;;;;;;8387113;28;19925;-75
2023/04/20 23:42:04;;;;;;;;;;;10.30;77.90;;;;;;8381226;28;19940;-75
2023/04/20 23:46:06;;;;;;;;;;;10.30;75.70;;;;;;8388470;28;19929;-75
2023/04/20 23:50:08;;;;;;;;;;;10.30;77.10;;;;;;8396964;28;19970;-75
2023/04/20 23:59:13;;;;;;;;;;;10.20;81.50;;;;;;8387398;28;19959;-75
